createdAt,value
2018-12-23T00:00:02.517Z,17.20
2018-12-23T00:02:30.834Z,17.23
2018-12-23T00:04:59.033Z,18.20
2018-12-23T00:07:27.268Z,19.17
2018-12-23T00:09:55.531Z,19.37
2018-12-23T00:12:23.915Z,21.00
2018-12-23T00:14:52.393Z,20.70
2018-12-23T00:17:20.834Z,20.97
2018-12-23T00:19:49.357Z,20.10
2018-12-23T00:22:17.628Z,22.17
2018-12-23T00:24:45.904Z,20.53
2018-12-23T00:27:14.439Z,22.47
2018-12-23T00:29:43.012Z,22.83
2018-12-23T00:32:11.378Z,21.97
2018-12-23T00:34:39.725Z,21.87
2018-12-23T00:37:07.996Z,21.93
2018-12-23T00:39:36.199Z,22.63
2018-12-23T00:42:04.770Z,20.33
2018-12-23T00:44:33.133Z,20.03
2018-12-23T00:47:01.404Z,20.95
2018-12-23T00:49:29.620Z,20.03
2018-12-23T00:51:57.837Z,20.57
2018-12-23T00:54:26.467Z,20.03
2018-12-23T00:56:54.885Z,20.60
2018-12-23T00:59:23.205Z,20.07
2018-12-23T01:01:51.576Z,20.27
2018-12-23T01:04:20.175Z,19.80
2018-12-23T01:06:48.605Z,18.37
2018-12-23T01:09:17.088Z,19.63
2018-12-23T01:11:45.278Z,20.10
2018-12-23T01:14:13.654Z,19.20
2018-12-23T01:16:41.966Z,18.40
2018-12-23T01:19:10.327Z,17.57
2018-12-23T01:21:38.722Z,19.43
2018-12-23T01:24:07.180Z,17.40
2018-12-23T01:26:36.244Z,17.47
2018-12-23T01:29:05.398Z,18.37
2018-12-23T01:31:33.898Z,18.30
2018-12-23T01:34:03.069Z,18.03
2018-12-23T01:36:31.767Z,18.87
2018-12-23T01:39:00.638Z,18.60
2018-12-23T01:41:29.246Z,18.20
2018-12-23T01:43:58.324Z,19.83
2018-12-23T01:46:26.581Z,20.67
2018-12-23T01:48:54.904Z,20.07
2018-12-23T01:51:23.368Z,22.07
2018-12-23T01:53:53.676Z,20.47
2018-12-23T01:56:24.248Z,20.83
2018-12-23T01:58:53.178Z,19.90
2018-12-23T02:01:22.745Z,19.73
2018-12-23T02:03:51.028Z,18.27
2018-12-23T02:06:21.971Z,18.97
2018-12-23T02:08:51.942Z,18.13
2018-12-23T02:11:20.426Z,17.33
2018-12-23T02:13:48.829Z,15.97
2018-12-23T02:16:17.296Z,16.73
2018-12-23T02:18:45.910Z,16.30
2018-12-23T02:21:14.634Z,14.43
2018-12-23T02:26:39.931Z,15.00
2018-12-23T02:29:08.589Z,14.63
2018-12-23T02:31:37.029Z,14.30
2018-12-23T02:34:05.382Z,14.77
2018-12-23T02:36:34.135Z,14.93
2018-12-23T02:39:03.049Z,14.57
2018-12-23T02:41:32.146Z,15.93
2018-12-23T02:44:00.786Z,14.33
2018-12-23T02:46:29.337Z,16.37
2018-12-23T02:48:59.079Z,15.97
2018-12-23T02:51:28.152Z,14.57
2018-12-23T02:53:56.424Z,13.77
2018-12-23T02:56:24.796Z,15.40
2018-12-23T02:58:53.222Z,13.57
2018-12-23T03:01:21.707Z,14.57
2018-12-23T03:03:50.195Z,15.03
2018-12-23T03:06:18.525Z,14.20
2018-12-23T03:08:46.899Z,14.97
2018-12-23T03:11:15.257Z,14.67
2018-12-23T03:13:43.540Z,14.57
2018-12-23T03:16:12.214Z,13.90
2018-12-23T03:18:40.486Z,14.43
2018-12-23T03:21:08.728Z,14.07
2018-12-23T03:23:36.965Z,14.30
2018-12-23T03:26:05.152Z,13.93
2018-12-23T03:28:33.419Z,13.30
2018-12-23T03:31:01.928Z,11.17
2018-12-23T03:33:30.315Z,10.97
2018-12-23T03:35:58.892Z,11.37
2018-12-23T03:38:27.664Z,11.63
2018-12-23T03:40:56.044Z,13.17
2018-12-23T03:43:24.504Z,12.30
2018-12-23T03:45:53.125Z,12.03
2018-12-23T03:48:21.587Z,11.03
2018-12-23T03:50:50.239Z,11.70
2018-12-23T03:53:19.971Z,9.93
2018-12-23T03:55:50.950Z,8.80
2018-12-23T03:58:19.496Z,8.83
2018-12-23T04:00:49.155Z,6.87
2018-12-23T04:03:19.739Z,6.53
2018-12-23T04:05:49.467Z,6.00
2018-12-23T04:08:17.856Z,6.73
2018-12-23T04:10:46.173Z,6.00
2018-12-23T04:13:14.362Z,5.50
2018-12-23T04:15:43.348Z,4.57
2018-12-23T04:18:11.828Z,4.00
2018-12-23T04:20:40.220Z,3.90
2018-12-23T04:23:09.010Z,3.40
2018-12-23T04:25:37.306Z,3.70
2018-12-23T04:31:01.820Z,3.50
2018-12-23T04:33:30.043Z,3.03
2018-12-23T04:35:58.355Z,3.20
2018-12-23T04:38:27.027Z,3.20
2018-12-23T04:40:55.615Z,3.97
2018-12-23T04:43:24.284Z,2.53
2018-12-23T04:45:53.021Z,2.53
2018-12-23T04:48:21.597Z,3.10
2018-12-23T04:50:50.962Z,3.07
2018-12-23T04:53:19.414Z,5.40
2018-12-23T04:55:47.942Z,4.93
2018-12-23T04:58:16.297Z,4.53
2018-12-23T05:00:44.677Z,5.03
2018-12-23T05:03:13.349Z,5.47
2018-12-23T05:05:41.611Z,6.03
2018-12-23T05:08:09.806Z,5.53
2018-12-23T05:10:37.974Z,4.63
2018-12-23T05:13:06.350Z,4.70
2018-12-23T05:15:34.972Z,4.57
2018-12-23T05:18:03.756Z,6.47
2018-12-23T05:20:32.121Z,4.23
2018-12-23T05:23:00.595Z,2.83
2018-12-23T05:25:28.948Z,3.53
2018-12-23T05:27:57.319Z,3.70
2018-12-23T05:30:32.552Z,3.60
2018-12-23T05:33:09.112Z,3.07
2018-12-23T05:35:37.233Z,2.90
2018-12-23T05:38:05.440Z,2.97
2018-12-23T05:40:33.659Z,3.57
2018-12-23T05:43:01.949Z,3.27
2018-12-23T05:48:29.011Z,3.77
2018-12-23T05:50:57.444Z,4.07
2018-12-23T05:53:25.631Z,4.47
2018-12-23T05:55:53.540Z,3.00
2018-12-23T05:58:21.769Z,3.97
2018-12-23T06:00:49.984Z,4.03
2018-12-23T06:03:18.513Z,2.73
2018-12-23T06:05:46.774Z,2.97
2018-12-23T06:08:15.015Z,2.83
2018-12-23T06:10:43.526Z,2.63
2018-12-23T06:13:11.788Z,2.67
2018-12-23T06:15:40.209Z,2.60
2018-12-23T06:18:20.754Z,3.23
2018-12-23T06:23:53.547Z,2.53
2018-12-23T06:26:26.718Z,2.30
2018-12-23T06:28:54.890Z,3.23
2018-12-23T06:31:23.062Z,4.07
2018-12-23T06:33:51.249Z,6.23
2018-12-23T06:36:19.770Z,4.33
2018-12-23T06:38:48.407Z,4.50
2018-12-23T06:41:16.603Z,5.10
2018-12-23T06:43:44.851Z,5.37
2018-12-23T06:46:13.386Z,4.80
2018-12-23T06:48:41.835Z,4.97
2018-12-23T06:51:10.303Z,4.50
2018-12-23T06:53:38.548Z,6.33
2018-12-23T06:56:06.736Z,6.37
2018-12-23T06:58:35.017Z,8.90
2018-12-23T07:01:03.226Z,7.97
2018-12-23T07:03:31.622Z,6.47
2018-12-23T07:06:00.051Z,3.93
2018-12-23T07:08:28.525Z,4.13
2018-12-23T07:10:57.004Z,5.40
2018-12-23T07:13:25.598Z,4.47
2018-12-23T07:15:53.967Z,4.50
2018-12-23T07:18:22.251Z,6.90
2018-12-23T07:20:50.620Z,5.77
2018-12-23T07:23:19.335Z,3.90
2018-12-23T07:25:47.999Z,3.10
2018-12-23T07:28:16.987Z,2.80
2018-12-23T07:30:45.468Z,2.57
2018-12-23T07:33:33.313Z,3.40
2018-12-23T07:39:01.088Z,2.77
2018-12-23T07:41:29.315Z,4.30
2018-12-23T07:43:57.649Z,4.90
2018-12-23T07:46:25.841Z,4.13
2018-12-23T07:48:54.063Z,4.17
2018-12-23T07:51:22.214Z,3.87
2018-12-23T07:53:50.381Z,3.33
2018-12-23T07:56:18.543Z,2.93
2018-12-23T07:58:46.964Z,2.60
2018-12-23T08:01:20.077Z,2.33
2018-12-23T08:03:49.755Z,2.03
2018-12-23T08:06:18.045Z,1.60
2018-12-23T08:08:46.397Z,2.20
2018-12-23T08:11:14.624Z,3.40
2018-12-23T08:13:42.831Z,2.57
2018-12-23T08:16:11.211Z,2.00
2018-12-23T08:18:39.826Z,2.20
2018-12-23T08:21:08.127Z,1.93
2018-12-23T08:23:36.977Z,3.07
2018-12-23T08:26:05.493Z,2.43
2018-12-23T08:28:34.002Z,2.80
2018-12-23T08:31:02.665Z,2.67
2018-12-23T08:33:31.507Z,3.93
2018-12-23T08:36:00.044Z,3.97
2018-12-23T08:38:28.309Z,5.30
2018-12-23T08:40:56.591Z,5.83
2018-12-23T08:43:24.958Z,6.53
2018-12-23T08:45:54.640Z,6.40
2018-12-23T08:48:23.131Z,5.87
2018-12-23T08:50:51.436Z,6.63
2018-12-23T08:53:19.811Z,5.93
2018-12-23T08:55:48.087Z,5.97
2018-12-23T08:58:16.254Z,7.33
2018-12-23T09:00:45.440Z,6.37
2018-12-23T09:03:18.843Z,5.83
2018-12-23T09:05:44.779Z,6.40
2018-12-23T09:08:14.963Z,7.37
2018-12-23T09:11:06.594Z,5.47
2018-12-23T09:13:34.887Z,5.00
2018-12-23T09:16:03.095Z,4.70
2018-12-23T09:18:31.436Z,4.10
2018-12-23T09:20:59.655Z,3.50
2018-12-23T09:23:27.940Z,3.93
2018-12-23T09:25:56.123Z,5.13
2018-12-23T09:28:24.445Z,4.50
2018-12-23T09:30:52.702Z,3.47
2018-12-23T09:33:21.030Z,3.77
2018-12-23T09:35:49.364Z,3.10
2018-12-23T09:38:17.557Z,3.33
2018-12-23T09:40:45.885Z,3.30
2018-12-23T09:43:14.929Z,3.77
2018-12-23T09:45:43.278Z,2.40
2018-12-23T09:48:20.597Z,3.00
2018-12-23T09:50:48.967Z,2.60
2018-12-23T09:53:17.348Z,2.60
2018-12-23T09:55:55.988Z,2.53
2018-12-23T09:58:24.541Z,2.50
2018-12-23T10:00:53.447Z,2.13
2018-12-23T10:03:22.310Z,2.23
2018-12-23T10:05:51.664Z,2.30
2018-12-23T10:08:20.079Z,3.10
2018-12-23T10:10:48.595Z,3.93
2018-12-23T10:13:17.096Z,3.07
2018-12-23T10:15:45.443Z,2.93
2018-12-23T10:18:13.818Z,2.27
2018-12-23T10:20:42.095Z,2.10
2018-12-23T10:23:10.432Z,2.37
2018-12-23T10:25:38.685Z,2.50
2018-12-23T10:28:06.876Z,1.87
2018-12-23T10:30:35.111Z,1.83
2018-12-23T10:33:03.697Z,2.00
2018-12-23T10:35:31.963Z,1.90
2018-12-23T10:38:00.665Z,1.50
2018-12-23T10:40:29.121Z,1.37
2018-12-23T10:42:57.632Z,1.60
2018-12-23T10:45:26.310Z,1.67
2018-12-23T10:47:54.576Z,1.30
2018-12-23T10:50:22.954Z,1.57
2018-12-23T10:52:54.827Z,1.17
2018-12-23T10:55:23.461Z,1.13
2018-12-23T10:57:56.914Z,1.50
2018-12-23T11:00:42.986Z,1.43
2018-12-23T11:03:11.701Z,1.30
2018-12-23T11:05:40.460Z,1.30
2018-12-23T11:08:09.023Z,1.50
2018-12-23T11:13:54.750Z,2.10
2018-12-23T11:16:25.556Z,1.83
2018-12-23T11:18:56.550Z,2.17
2018-12-23T11:21:25.263Z,1.87
2018-12-23T11:23:53.528Z,1.80
2018-12-23T11:26:21.771Z,1.80
2018-12-23T11:28:49.928Z,1.90
2018-12-23T11:31:18.342Z,2.00
2018-12-23T11:33:46.633Z,2.00
2018-12-23T11:36:14.924Z,2.40
2018-12-23T11:38:43.366Z,2.30
2018-12-23T11:41:11.683Z,2.30
2018-12-23T11:43:39.914Z,2.37
2018-12-23T11:46:08.135Z,2.60
2018-12-23T11:48:36.486Z,2.70
2018-12-23T11:51:06.707Z,2.30
2018-12-23T11:53:35.271Z,2.20
2018-12-23T11:56:03.682Z,2.37
2018-12-23T11:58:32.281Z,1.73
2018-12-23T12:01:00.732Z,2.00
2018-12-23T12:03:30.275Z,2.23
2018-12-23T12:05:58.679Z,3.62
2018-12-23T12:08:27.135Z,3.30
2018-12-23T12:10:55.367Z,2.50
2018-12-23T12:13:23.628Z,2.60
2018-12-23T12:15:51.894Z,2.27
2018-12-23T12:18:20.079Z,3.23
2018-12-23T12:20:48.353Z,3.07
2018-12-23T12:23:17.088Z,2.33
2018-12-23T12:25:45.353Z,2.27
2018-12-23T12:28:13.661Z,1.30
2018-12-23T12:30:41.926Z,1.50
2018-12-23T12:33:11.191Z,2.00
2018-12-23T12:35:39.611Z,1.90
2018-12-23T12:38:07.932Z,2.23
2018-12-23T12:40:36.272Z,2.17
2018-12-23T12:43:04.578Z,2.10
2018-12-23T12:45:33.867Z,1.73
2018-12-23T12:48:02.935Z,2.27
2018-12-23T12:50:31.335Z,1.93
2018-12-23T12:52:59.696Z,1.83
2018-12-23T12:55:27.958Z,1.57
2018-12-23T12:57:56.213Z,2.20
2018-12-23T13:00:24.536Z,1.93
2018-12-23T13:02:52.841Z,1.80
2018-12-23T13:05:21.146Z,1.70
2018-12-23T13:07:49.704Z,1.60
2018-12-23T13:10:18.305Z,1.30
2018-12-23T13:12:46.890Z,1.60
2018-12-23T13:15:15.528Z,1.80
2018-12-23T13:17:43.912Z,2.27
2018-12-23T13:20:13.266Z,2.20
2018-12-23T13:22:41.721Z,2.37
2018-12-23T13:25:10.051Z,1.97
2018-12-23T13:27:38.340Z,2.13
2018-12-23T13:30:07.817Z,2.77
2018-12-23T13:32:36.379Z,2.03
2018-12-23T13:35:04.887Z,3.10
2018-12-23T13:37:33.249Z,3.10
2018-12-23T13:40:05.478Z,2.70
2018-12-23T13:42:38.273Z,1.50
2018-12-23T13:45:11.239Z,2.43
2018-12-23T20:54:59.127Z,9.63
2018-12-23T20:57:44.166Z,9.57
2018-12-23T21:00:36.407Z,9.27
2018-12-23T21:03:40.639Z,8.50
2018-12-23T21:06:42.115Z,8.40
2018-12-23T21:09:47.977Z,10.67
2018-12-23T21:12:39.305Z,10.17
2018-12-23T21:15:41.156Z,8.33
2018-12-23T21:18:14.424Z,9.87
2018-12-23T21:21:08.104Z,9.47
2018-12-23T21:23:43.692Z,9.50
2018-12-23T21:26:31.386Z,9.23
2018-12-23T21:29:26.639Z,9.23
2018-12-23T21:32:02.400Z,9.37
2018-12-23T21:34:40.860Z,8.87
2018-12-23T21:37:16.471Z,8.70
2018-12-23T21:40:13.103Z,9.37
2018-12-23T21:42:54.812Z,8.47
2018-12-23T21:45:36.221Z,8.10
2018-12-23T21:48:15.543Z,7.90
2018-12-23T21:50:54.668Z,7.93
2018-12-23T21:53:30.489Z,7.63
2018-12-23T21:56:18.212Z,7.37
2018-12-23T21:59:09.309Z,7.47
2018-12-23T22:01:48.999Z,7.73
2018-12-23T22:04:29.336Z,7.07
2018-12-23T22:07:30.643Z,6.60
2018-12-23T22:10:13.449Z,5.90
2018-12-23T22:13:01.121Z,6.53
2018-12-23T22:15:30.943Z,6.43
2018-12-23T22:18:00.759Z,6.00
2018-12-23T22:20:30.603Z,6.00
2018-12-23T22:23:00.817Z,5.13
2018-12-23T22:25:31.010Z,5.70
2018-12-23T22:28:01.115Z,5.43
2018-12-23T22:30:30.989Z,6.43
2018-12-23T22:33:00.755Z,7.40
2018-12-23T22:35:30.647Z,8.17
2018-12-23T22:38:00.438Z,8.80
2018-12-23T22:40:30.289Z,9.20
2018-12-23T22:43:00.263Z,8.93
2018-12-23T22:45:30.138Z,8.70
2018-12-23T22:48:00.642Z,9.93
2018-12-23T22:50:30.824Z,9.63
2018-12-23T22:53:00.923Z,10.80
2018-12-23T22:55:31.342Z,11.23
2018-12-23T22:58:02.405Z,11.47
2018-12-23T23:00:34.242Z,10.80
2018-12-23T23:03:23.861Z,10.65
2018-12-23T23:05:54.234Z,10.23
2018-12-23T23:08:24.303Z,12.63
2018-12-23T23:10:55.160Z,11.22
2018-12-23T23:13:25.290Z,11.33
2018-12-23T23:15:55.609Z,10.97
2018-12-23T23:18:25.598Z,11.78
2018-12-23T23:20:55.472Z,11.70
2018-12-23T23:23:25.701Z,13.75
2018-12-23T23:25:55.584Z,12.57
2018-12-23T23:28:25.551Z,12.37
2018-12-23T23:30:55.633Z,11.67
2018-12-23T23:33:25.691Z,11.35
2018-12-23T23:35:55.701Z,10.03
2018-12-23T23:38:25.930Z,11.12
2018-12-23T23:41:00.868Z,12.67
2018-12-23T23:43:32.389Z,11.07
2018-12-23T23:46:02.813Z,12.00
2018-12-23T23:48:32.863Z,13.22
2018-12-23T23:51:02.839Z,14.33
2018-12-23T23:53:33.066Z,12.97
2018-12-23T23:56:02.955Z,14.10
2018-12-23T23:58:33.078Z,12.80
